Bowden, West Virginia
Current Conditions -  °F | °C
As of 11:51 AM on Friday 31 Oct 2014 (Local Time) from KEKN Reporting Station
Overcast Overcast  
Wind Chill: 41°   Ceiling: 3300
Heat Index: 41°   Visibility: 10mi
Dew Point: 35°   Wind: 0mph
Humidity: 79%   Direction: NA
Pressure: 29.92"   Gusts: NA
Location:  38.91°N, 79.71°W
Report Text: KEKN 311551Z AUTO 00000KT 10SM OVC033 05/02 A2992 RMK AO2 SLP149 T00500017 TSNO
Loading
Personal Weather Stations






























Interactive Weather Map
Tropical Storm Tracking
New forecast layout! Learn more

10-Day Weather Forecast

Advertisements
Track Severe Weather on mobile